Time;durP1;ratioP1;P1;durP2;ratioP2;P2;SDS_P1;SDS_P2;PMS_P1;PMS_P2;Temp;Humidity;BMP_temperature;BMP_pressure;BME280_temperature;BME280_humidity;BME280_pressure;Samples;Min_cycle;Max_cycle;Signal;HPM_P1;HPM_P2
2024/01/08 00:01:23;;;;;;;5.97;5.43;;;-1.20;99.90;;;;;;6218381;23;20463;-79
2024/01/08 00:03:51;;;;;;;4.60;4.20;;;-1.20;99.90;;;;;;6218225;23;20418;-78
2024/01/08 00:06:28;;;;;;;5.47;4.97;;;-1.20;99.90;;;;;;6218364;23;20406;-77
2024/01/08 00:09:07;;;;;;;5.03;4.57;;;-1.20;99.90;;;;;;6218716;23;20472;-77
2024/01/08 00:11:44;;;;;;;4.90;4.60;;;-1.10;99.90;;;;;;6222052;23;21007;-78
2024/01/08 00:14:27;;;;;;;4.70;4.23;;;-1.10;99.90;;;;;;6227602;23;20418;-77
2024/01/08 00:17:02;;;;;;;4.73;4.43;;;-1.10;99.90;;;;;;6232913;23;20452;-78
2024/01/08 00:19:53;;;;;;;5.70;5.20;;;-1.00;99.90;;;;;;6230751;23;20406;-78
2024/01/08 00:22:32;;;;;;;5.10;4.70;;;-1.10;99.90;;;;;;6233135;23;20703;-78
2024/01/08 00:25:07;;;;;;;5.40;4.90;;;-1.10;99.90;;;;;;6231638;23;20411;-79
2024/01/08 00:27:38;;;;;;;7.50;5.43;;;-1.40;99.90;;;;;;6227652;23;20429;-77
2024/01/08 00:30:19;;;;;;;5.60;5.20;;;-0.80;99.90;;;;;;6222170;23;20531;-78
2024/01/08 00:32:57;;;;;;;5.43;4.77;;;-1.10;99.90;;;;;;6221957;23;20440;-78
2024/01/08 00:35:32;;;;;;;4.83;4.43;;;-1.10;99.90;;;;;;6221693;23;20414;-78
2024/01/08 00:38:10;;;;;;;5.70;5.23;;;-1.10;99.90;;;;;;6223204;23;20484;-81
2024/01/08 00:40:43;;;;;;;5.27;4.87;;;-1.10;99.90;;;;;;6223192;23;20410;-76
2024/01/08 00:43:16;;;;;;;4.63;4.30;;;-1.50;99.90;;;;;;6223655;23;20398;-79
2024/01/08 00:45:48;;;;;;;5.20;4.80;;;-1.10;99.90;;;;;;6223134;23;20410;-78
2024/01/08 00:48:19;;;;;;;5.90;5.40;;;-1.40;99.90;;;;;;6223638;23;20746;-77
2024/01/08 00:50:48;;;;;;;5.60;5.20;;;-1.40;99.90;;;;;;6223916;23;20414;-78
2024/01/08 00:53:26;;;;;;;5.33;4.83;;;-1.10;99.90;;;;;;6221149;23;20722;-76
2024/01/08 00:55:55;;;;;;;6.00;5.57;;;-1.20;99.90;;;;;;6223576;23;20448;-79
2024/01/08 00:58:24;;;;;;;6.10;5.50;;;-1.10;99.90;;;;;;6224559;23;20405;-79
2024/01/08 01:00:55;;;;;;;5.50;5.10;;;-1.20;99.90;;;;;;6224997;23;20400;-80
2024/01/08 01:03:29;;;;;;;6.00;5.40;;;-1.10;99.90;;;;;;6223327;23;20428;-78
2024/01/08 01:06:03;;;;;;;5.70;5.20;;;-1.20;99.90;;;;;;6223306;23;20433;-77
2024/01/08 01:08:33;;;;;;;5.63;5.13;;;-0.90;99.90;;;;;;6223417;23;20386;-78
2024/01/08 01:11:13;;;;;;;5.07;4.67;;;-1.10;99.90;;;;;;6223004;23;20468;-77
2024/01/08 01:13:42;;;;;;;5.73;5.33;;;-1.10;99.90;;;;;;6224424;23;20406;-79
2024/01/08 01:16:17;;;;;;;6.07;5.57;;;-1.10;99.90;;;;;;6226562;23;20410;-80
2024/01/08 01:19:04;;;;;;;5.67;5.17;;;-1.10;99.90;;;;;;6228866;23;20444;-80
2024/01/08 01:21:40;;;;;;;6.30;5.80;;;-1.10;99.90;;;;;;6228791;23;20426;-78
2024/01/08 01:24:27;;;;;;;5.77;5.27;;;-0.80;99.90;;;;;;6229327;23;20413;-80
2024/01/08 01:26:58;;;;;;;5.70;5.20;;;-1.40;99.90;;;;;;6228208;23;20409;-77
2024/01/08 01:29:38;;;;;;;6.20;5.70;;;-1.10;99.90;;;;;;6228556;23;20433;-77
2024/01/08 01:32:17;;;;;;;6.10;5.70;;;-1.10;99.90;;;;;;6229720;23;20430;-78
2024/01/08 01:34:56;;;;;;;5.60;5.17;;;-1.10;99.90;;;;;;6227925;23;20413;-78
2024/01/08 01:37:27;;;;;;;5.53;5.03;;;-1.10;99.90;;;;;;6227655;23;20901;-78
2024/01/08 01:39:59;;;;;;;6.53;6.03;;;-1.10;99.90;;;;;;6228280;23;20406;-78
2024/01/08 01:42:30;;;;;;;5.93;5.43;;;-1.10;99.90;;;;;;6227210;23;20882;-78
2024/01/08 01:45:03;;;;;;;5.43;5.03;;;-1.10;99.90;;;;;;6225951;23;20414;-78
2024/01/08 01:47:40;;;;;;;6.30;5.73;;;-1.40;99.90;;;;;;6226649;23;20387;-77
2024/01/08 01:50:19;;;;;;;6.50;5.90;;;-0.80;99.90;;;;;;6225435;23;20529;-78
2024/01/08 01:52:55;;;;;;;6.30;5.70;;;-1.10;99.90;;;;;;6228146;23;20525;-78
2024/01/08 01:55:39;;;;;;;6.43;5.67;;;-1.00;99.90;;;;;;6228522;23;20402;-78
2024/01/08 01:58:27;;;;;;;6.47;5.97;;;-1.10;99.90;;;;;;6227487;23;20420;-78
2024/01/08 02:01:20;;;;;;;5.57;5.07;;;-1.40;99.90;;;;;;6225425;23;20409;-78
2024/01/08 02:03:54;;;;;;;6.20;5.70;;;-1.00;99.90;;;;;;6227833;23;20414;-78
2024/01/08 02:06:27;;;;;;;5.63;5.23;;;-1.10;99.90;;;;;;6229650;23;20402;-79
2024/01/08 02:09:11;;;;;;;6.60;6.00;;;-1.40;99.90;;;;;;6229310;23;20418;-79
2024/01/08 02:11:47;;;;;;;6.03;5.53;;;-1.00;99.90;;;;;;6229322;23;20477;-77
2024/01/08 02:14:18;;;;;;;6.53;5.93;;;-1.00;99.90;;;;;;6229252;23;20371;-77
2024/01/08 02:17:00;;;;;;;6.50;5.90;;;-0.80;99.90;;;;;;6228239;23;20407;-78
2024/01/08 02:19:30;;;;;;;6.73;6.13;;;-1.00;99.90;;;;;;6226755;23;20414;-77
2024/01/08 02:22:12;;;;;;;6.47;5.90;;;-1.00;99.90;;;;;;6232295;23;20620;-78
2024/01/08 02:24:51;;;;;;;6.47;5.97;;;-1.00;99.90;;;;;;6233941;23;20429;-78
2024/01/08 02:27:36;;;;;;;5.83;5.23;;;-1.00;99.90;;;;;;6229595;23;20457;-78
2024/01/08 02:30:15;;;;;;;7.00;6.40;;;-1.00;99.90;;;;;;6232035;23;20443;-78
2024/01/08 02:32:48;;;;;;;7.47;6.77;;;-1.30;99.90;;;;;;6236111;23;20442;-78
2024/01/08 02:35:27;;;;;;;6.60;6.00;;;-0.90;99.90;;;;;;6228197;23;20437;-78
2024/01/08 02:37:56;;;;;;;6.90;6.30;;;-0.90;99.90;;;;;;6220248;23;20403;-78
2024/01/08 02:40:38;;;;;;;7.03;6.40;;;-0.90;99.90;;;;;;6216461;23;20406;-79
2024/01/08 02:43:20;;;;;;;6.93;6.33;;;-1.00;99.90;;;;;;6217453;23;20434;-78
2024/01/08 02:45:54;;;;;;;7.67;6.97;;;-0.90;99.90;;;;;;6216954;23;20418;-79
2024/01/08 02:48:33;;;;;;;6.50;5.90;;;-0.90;99.90;;;;;;6217306;23;20409;-77
2024/01/08 02:51:12;;;;;;;6.20;5.60;;;-0.90;99.90;;;;;;6218567;23;20525;-78
2024/01/08 02:53:43;;;;;;;6.50;5.90;;;-0.90;99.90;;;;;;6220363;23;20480;-78
2024/01/08 02:56:26;;;;;;;6.77;6.17;;;-0.90;99.90;;;;;;6220983;23;20426;-78
2024/01/08 02:59:08;;;;;;;7.10;6.50;;;-0.90;99.90;;;;;;6228584;23;20414;-80
2024/01/08 03:01:45;;;;;;;7.77;6.60;;;-0.90;99.90;;;;;;6221922;23;20430;-79
2024/01/08 03:04:16;;;;;;;6.70;6.10;;;-0.90;99.90;;;;;;6219005;23;20397;-78
2024/01/08 03:06:49;;;;;;;6.80;6.20;;;-1.30;99.90;;;;;;6218087;23;20402;-77
2024/01/08 03:09:21;;;;;;;6.23;5.83;;;-0.90;99.90;;;;;;6217769;23;20430;-77
2024/01/08 03:11:55;;;;;;;6.50;5.90;;;-0.90;99.90;;;;;;6219357;23;20426;-78
2024/01/08 03:14:31;;;;;;;6.87;6.27;;;-0.90;99.90;;;;;;6222625;23;20414;-78
2024/01/08 03:17:14;;;;;;;8.00;6.50;;;-1.00;99.90;;;;;;6222126;23;20410;-78
2024/01/08 03:19:54;;;;;;;7.00;6.50;;;-0.90;99.90;;;;;;6222623;23;20409;-78
2024/01/08 03:22:32;;;;;;;7.13;6.53;;;-0.90;99.90;;;;;;6223034;23;20578;-78
2024/01/08 03:25:11;;;;;;;6.07;5.57;;;-0.90;99.90;;;;;;6222002;23;20414;-78
2024/01/08 03:27:47;;;;;;;6.13;5.53;;;-0.90;99.90;;;;;;6223595;23;20420;-78
2024/01/08 03:30:24;;;;;;;6.47;5.93;;;-0.90;99.90;;;;;;6223242;23;20420;-77
2024/01/08 03:32:56;;;;;;;6.10;5.60;;;-0.90;99.90;;;;;;6224116;23;20464;-78
2024/01/08 03:35:28;;;;;;;6.23;5.73;;;-1.00;99.90;;;;;;6226201;23;20948;-77
2024/01/08 03:37:58;;;;;;;7.00;6.43;;;-0.90;99.90;;;;;;6228154;23;20429;-76
2024/01/08 03:40:29;;;;;;;6.60;6.00;;;-0.90;99.90;;;;;;6225484;23;20773;-79
2024/01/08 03:43:15;;;;;;;6.70;6.20;;;-0.90;99.90;;;;;;6223792;23;20489;-78
2024/01/08 03:45:58;;;;;;;5.57;5.13;;;-0.90;99.90;;;;;;6221445;23;20437;-78
2024/01/08 03:48:48;;;;;;;6.60;6.00;;;-0.80;99.90;;;;;;6222399;23;20460;-77
2024/01/08 03:51:22;;;;;;;6.60;6.00;;;-0.90;99.90;;;;;;6219579;23;20734;-79
2024/01/08 03:53:55;;;;;;;6.30;5.80;;;-0.90;99.90;;;;;;6220110;23;20413;-78
2024/01/08 03:56:28;;;;;;;8.20;6.40;;;-1.30;99.90;;;;;;6221836;23;20422;-79
2024/01/08 03:59:14;;;;;;;6.27;5.80;;;-0.90;99.90;;;;;;6224132;23;20464;-78
2024/01/08 04:01:58;;;;;;;7.23;6.63;;;-1.00;99.90;;;;;;6222488;23;20497;-77
2024/01/08 04:04:43;;;;;;;6.47;6.00;;;-0.90;99.90;;;;;;6220513;23;20410;-79
2024/01/08 04:07:14;;;;;;;7.13;6.53;;;-0.80;99.90;;;;;;6221396;23;20406;-78
2024/01/08 04:09:50;;;;;;;6.70;6.10;;;-0.90;99.90;;;;;;6223214;23;20464;-78
2024/01/08 04:12:26;;;;;;;5.73;5.30;;;-1.00;99.90;;;;;;6223970;23;20430;-77
2024/01/08 04:15:14;;;;;;;7.07;6.27;;;-0.90;99.90;;;;;;6221353;23;20433;-78
2024/01/08 04:17:47;;;;;;;6.30;5.83;;;-0.90;99.90;;;;;;6215979;23;20485;-79
2024/01/08 04:20:18;;;;;;;6.10;5.60;;;-1.00;99.90;;;;;;6223305;23;20402;-78
2024/01/08 04:22:53;;;;;;;6.70;6.10;;;-0.90;99.90;;;;;;6222587;23;20481;-79
2024/01/08 04:25:23;;;;;;;7.20;6.53;;;-0.90;99.90;;;;;;6223329;23;20425;-76
2024/01/08 04:27:56;;;;;;;7.27;6.57;;;-0.90;99.90;;;;;;6223213;23;20417;-78
2024/01/08 04:30:39;;;;;;;;;;;;;;;;;;;;;
2024/01/08 04:33:10;;;;;;;6.90;6.20;;;-0.90;99.90;;;;;;6221890;23;20964;-78
2024/01/08 04:35:41;;;;;;;7.47;6.67;;;-0.90;99.90;;;;;;6221667;23;20410;-77
2024/01/08 04:38:15;;;;;;;6.70;6.20;;;-0.90;99.90;;;;;;6222708;23;20425;-78
2024/01/08 04:40:50;;;;;;;6.07;5.57;;;-1.00;99.90;;;;;;6218888;23;20403;-79
2024/01/08 04:43:20;;;;;;;6.40;5.90;;;-1.00;99.90;;;;;;6218804;23;20406;-78
2024/01/08 04:45:52;;;;;;;6.80;6.30;;;-1.00;99.90;;;;;;6217868;23;20410;-78
2024/01/08 04:48:24;;;;;;;6.43;5.90;;;-1.30;99.90;;;;;;6218847;23;20413;-79
2024/01/08 04:51:10;;;;;;;6.23;5.73;;;-1.00;99.90;;;;;;6218089;23;20517;-78
2024/01/08 04:53:46;;;;;;;6.40;5.90;;;-1.10;99.90;;;;;;6217885;23;20413;-78
2024/01/08 04:56:25;;;;;;;7.03;6.43;;;-1.40;99.90;;;;;;6217468;23;20410;-78
2024/01/08 04:58:57;;;;;;;7.00;6.40;;;-0.90;99.90;;;;;;6218233;23;20747;-78
2024/01/08 05:01:40;;;;;;;7.77;7.07;;;-0.90;99.90;;;;;;6217300;23;20427;-79
2024/01/08 05:04:15;;;;;;;8.60;5.93;;;-1.00;99.90;;;;;;6217309;23;20414;-78
2024/01/08 05:06:53;;;;;;;6.77;6.17;;;-1.10;99.90;;;;;;6217389;23;20929;-79
2024/01/08 05:09:26;;;;;;;7.37;6.60;;;-1.10;99.90;;;;;;6217193;23;20477;-80
2024/01/08 05:11:54;;;;;;;6.17;5.77;;;-1.10;99.90;;;;;;6216690;23;20465;-78
2024/01/08 05:14:26;;;;;;;6.60;6.10;;;-1.00;99.90;;;;;;6216387;23;21005;-79
2024/01/08 05:16:58;;;;;;;7.10;6.47;;;-1.10;99.90;;;;;;6217378;23;20514;-79
2024/01/08 05:19:30;;;;;;;7.40;6.70;;;-1.10;99.90;;;;;;6217514;23;20374;-78
2024/01/08 05:22:03;;;;;;;8.40;7.60;;;-0.80;99.90;;;;;;6217113;23;20430;-78
2024/01/08 05:24:35;;;;;;;6.80;6.23;;;-1.10;99.90;;;;;;6216615;23;20410;-80
2024/01/08 05:27:09;;;;;;;13.63;10.90;;;-1.40;99.90;;;;;;6218050;23;20854;-78
2024/01/08 05:29:47;;;;;;;7.80;7.10;;;-1.00;99.90;;;;;;6217894;23;20421;-79
2024/01/08 05:32:20;;;;;;;7.53;6.73;;;-1.10;99.90;;;;;;6218220;23;20448;-80
2024/01/08 05:34:54;;;;;;;7.57;6.60;;;-1.10;99.90;;;;;;6220984;23;20403;-80
2024/01/08 05:37:27;;;;;;;8.00;7.27;;;-1.00;99.90;;;;;;6220138;23;20988;-79
2024/01/08 05:40:00;;;;;;;7.60;6.97;;;-1.10;99.90;;;;;;6220488;23;20413;-78
2024/01/08 05:42:34;;;;;;;7.77;7.07;;;-0.80;99.90;;;;;;6219190;23;20422;-78
2024/01/08 05:45:10;;;;;;;6.53;6.13;;;-1.10;99.90;;;;;;6218853;23;20437;-80
2024/01/08 05:47:53;;;;;;;6.73;6.23;;;-1.10;99.90;;;;;;6217633;23;20842;-79
2024/01/08 05:50:29;;;;;;;7.53;6.77;;;-1.10;99.90;;;;;;6217807;23;20413;-77
2024/01/08 05:53:02;;;;;;;7.10;6.40;;;-1.20;99.90;;;;;;6217698;23;20422;-78
2024/01/08 05:55:40;;;;;;;7.33;6.73;;;-1.20;99.90;;;;;;6218337;23;20493;-79
2024/01/08 05:58:13;;;;;;;7.43;6.63;;;-1.20;99.90;;;;;;6218208;23;20398;-79
2024/01/08 06:00:48;;;;;;;7.50;6.80;;;-1.20;99.90;;;;;;6217336;23;20495;-79
2024/01/08 06:03:34;;;;;;;6.30;5.80;;;-1.20;99.90;;;;;;6216450;23;20500;-79
2024/01/08 06:06:09;;;;;;;6.63;6.03;;;-1.20;99.90;;;;;;6218091;23;20432;-80
2024/01/08 06:08:48;;;;;;;7.83;7.13;;;-1.20;99.90;;;;;;6219584;23;20413;-77
2024/01/08 06:11:24;;;;;;;7.30;6.70;;;-1.30;99.90;;;;;;6218184;23;20452;-80
2024/01/08 06:13:52;;;;;;;7.17;6.57;;;-1.20;99.90;;;;;;6219625;23;20406;-78
2024/01/08 06:16:35;;;;;;;6.30;5.80;;;-1.20;99.90;;;;;;6218844;23;20417;-78
2024/01/08 06:19:14;;;;;;;6.20;5.70;;;-1.30;99.90;;;;;;6217529;23;20414;-78
2024/01/08 06:21:54;;;;;;;6.13;5.63;;;-1.30;99.90;;;;;;6220110;23;20430;-77
2024/01/08 06:24:34;;;;;;;7.00;6.30;;;-1.30;99.90;;;;;;6220969;23;20382;-77
2024/01/08 06:27:10;;;;;;;7.13;6.53;;;-1.30;99.90;;;;;;6221708;23;20874;-77
2024/01/08 06:29:42;;;;;;;6.17;5.67;;;-1.30;99.90;;;;;;6221131;23;20410;-78
2024/01/08 06:32:22;;;;;;;5.63;5.13;;;-1.30;99.90;;;;;;6219535;23;20779;-76
2024/01/08 06:35:04;;;;;;;6.13;5.70;;;-1.30;99.90;;;;;;6220055;23;20414;-78
2024/01/08 06:37:45;;;;;;;6.37;5.87;;;-1.70;99.90;;;;;;6219096;23;20371;-76
2024/01/08 06:40:17;;;;;;;6.77;6.27;;;-1.40;99.90;;;;;;6222495;23;20630;-78
2024/01/08 06:42:48;;;;;;;5.63;5.23;;;-1.30;99.90;;;;;;6223920;23;20426;-79
2024/01/08 06:45:18;;;;;;;6.97;6.10;;;-1.30;99.90;;;;;;6221750;23;20441;-79
2024/01/08 06:48:03;;;;;;;5.77;5.37;;;-1.30;99.90;;;;;;6220478;23;20984;-81
2024/01/08 06:50:44;;;;;;;5.87;5.37;;;-1.30;99.90;;;;;;6218455;23;20433;-77
2024/01/08 06:53:11;;;;;;;7.70;6.20;;;-1.30;99.90;;;;;;6220073;23;20406;-80
2024/01/08 06:55:39;;;;;;;5.93;5.53;;;-1.40;99.90;;;;;;6225306;23;20390;-78
2024/01/08 06:58:11;;;;;;;6.90;6.23;;;-1.40;99.90;;;;;;6226109;23;20429;-80
2024/01/08 07:00:41;;;;;;;6.43;5.83;;;-1.40;99.90;;;;;;6224200;23;20426;-79
2024/01/08 07:03:20;;;;;;;6.27;5.70;;;-1.40;99.90;;;;;;6224230;23;20430;-79
2024/01/08 07:06:01;;;;;;;5.73;5.23;;;-1.40;99.90;;;;;;6222437;23;20383;-79
2024/01/08 07:08:31;;;;;;;6.90;6.23;;;-1.30;99.90;;;;;;6218684;23;20918;-79
2024/01/08 07:11:02;;;;;;;6.73;6.10;;;-1.40;99.90;;;;;;6217909;23;20430;-77
2024/01/08 07:13:31;;;;;;;6.10;5.60;;;-1.40;99.90;;;;;;6218842;23;20932;-77
2024/01/08 07:16:03;;;;;;;6.90;6.20;;;-1.40;99.90;;;;;;6217152;23;20893;-79
2024/01/08 07:18:34;;;;;;;6.00;5.50;;;-1.30;99.90;;;;;;6219509;23;20414;-78
2024/01/08 07:21:13;;;;;;;6.80;6.20;;;-1.70;99.90;;;;;;6220511;23;20433;-82
2024/01/08 07:23:49;;;;;;;6.70;6.17;;;-1.40;99.90;;;;;;6219905;23;20410;-79
2024/01/08 07:26:21;;;;;;;6.47;5.80;;;-1.40;99.90;;;;;;6219301;23;20472;-78
2024/01/08 07:29:14;;;;;;;6.30;5.70;;;-1.40;99.90;;;;;;6223410;23;20412;-80
2024/01/08 07:31:52;;;;;;;6.40;5.80;;;-1.70;99.90;;;;;;6222340;23;20852;-77
2024/01/08 07:34:30;;;;;;;6.40;5.80;;;-1.40;99.90;;;;;;6223224;23;20473;-78
2024/01/08 07:37:10;;;;;;;6.43;5.90;;;-1.30;99.90;;;;;;6225141;23;20422;-79
2024/01/08 07:39:53;;;;;;;6.83;6.23;;;-1.40;99.90;;;;;;6226429;23;20457;-76
2024/01/08 07:42:33;;;;;;;7.20;6.50;;;-1.30;99.90;;;;;;6226946;23;20520;-78
2024/01/08 07:45:11;;;;;;;7.03;6.33;;;-1.30;99.90;;;;;;6222074;23;20429;-77
2024/01/08 07:50:38;;;;;;;7.70;7.00;;;-1.20;99.90;;;;;;6213642;23;20417;-80
2024/01/08 07:53:13;;;;;;;7.97;7.20;;;-1.10;99.90;;;;;;6220280;23;20494;-78
2024/01/08 07:55:44;;;;;;;6.00;5.50;;;-1.00;99.90;;;;;;6220756;23;20402;-78
2024/01/08 07:58:14;;;;;;;6.70;6.10;;;-0.90;99.90;;;;;;6228310;23;20399;-77
2024/01/08 08:00:42;;;;;;;6.73;5.80;;;-1.20;99.90;;;;;;6222876;23;20402;-79
2024/01/08 08:03:11;;;;;;;6.40;5.90;;;-1.10;99.90;;;;;;6220976;23;20458;-79
2024/01/08 08:05:42;;;;;;;5.60;5.10;;;-1.50;99.90;;;;;;6221447;23;20433;-78
2024/01/08 08:08:14;;;;;;;6.70;6.10;;;-1.10;99.90;;;;;;6221535;23;20411;-79
2024/01/08 08:10:42;;;;;;;7.10;5.50;;;-1.20;99.90;;;;;;6220410;23;20412;-78
2024/01/08 08:13:10;;;;;;;7.17;6.47;;;-1.10;99.90;;;;;;6220753;23;20439;-80
2024/01/08 08:16:00;;;;;;;6.60;6.00;;;-1.20;99.90;;;;;;6218608;23;20482;-78
2024/01/08 08:18:34;;;;;;;7.20;6.50;;;-1.10;99.90;;;;;;6220057;23;20402;-77
2024/01/08 08:21:18;;;;;;;6.97;6.33;;;-1.10;99.90;;;;;;6218590;23;20405;-79
2024/01/08 08:24:10;;;;;;;6.97;6.27;;;-1.40;99.90;;;;;;6220180;23;20410;-79
2024/01/08 08:29:47;;;;;;;;;;;;;;;;;;;;;
2024/01/08 08:32:29;;;;;;;6.97;6.27;;;-1.10;99.90;;;;;;6222804;23;20430;-77
2024/01/08 08:35:13;;;;;;;7.10;6.50;;;-1.10;99.90;;;;;;6226011;23;20410;-79
2024/01/08 08:37:45;;;;;;;7.47;6.63;;;-1.10;99.90;;;;;;6231149;23;20410;-79
2024/01/08 08:40:17;;;;;;;7.30;6.60;;;-1.10;99.90;;;;;;6224635;23;20414;-79
2024/01/08 08:46:11;;;;;;;7.17;6.43;;;-1.00;99.90;;;;;;6213452;23;20494;-82
2024/01/08 08:48:56;;;;;;;;;;;;;;;;;;;;;
2024/01/08 08:51:31;;;;;;;6.53;5.97;;;-1.10;99.90;;;;;;6222719;23;20434;-79
2024/01/08 08:54:03;;;;;;;6.40;5.90;;;-1.00;99.90;;;;;;6228422;23;20480;-79
2024/01/08 08:56:36;;;;;;;6.20;5.67;;;-1.00;99.90;;;;;;6229463;23;20414;-79
2024/01/08 08:59:06;;;;;;;7.10;6.40;;;-1.10;99.90;;;;;;6229367;23;20430;-81
2024/01/08 09:01:34;;;;;;;5.70;5.20;;;-1.10;99.90;;;;;;6229921;23;20457;-79
2024/01/08 09:04:02;;;;;;;7.10;6.50;;;-0.80;99.90;;;;;;6231662;23;20418;-81
2024/01/08 09:06:33;;;;;;;6.17;5.67;;;-1.00;99.90;;;;;;6229272;23;20466;-80
2024/01/08 09:09:04;;;;;;;6.67;6.17;;;-1.10;99.90;;;;;;6232442;23;20402;-80
2024/01/08 09:11:39;;;;;;;6.10;5.60;;;-1.10;99.90;;;;;;6232060;23;20468;-79
2024/01/08 09:16:59;;;;;;;7.33;6.50;;;-1.00;99.90;;;;;;6223214;23;20390;-79
2024/01/08 09:19:27;;;;;;;6.60;6.10;;;-0.70;99.90;;;;;;6224255;23;20857;-80
2024/01/08 09:21:59;;;;;;;5.97;5.43;;;-1.00;99.90;;;;;;6224872;23;20438;-79
2024/01/08 09:24:31;;;;;;;6.43;5.83;;;-1.00;99.90;;;;;;6225292;23;20403;-79
2024/01/08 09:27:05;;;;;;;6.30;5.80;;;-1.00;99.90;;;;;;6229505;23;20410;-80
2024/01/08 09:29:40;;;;;;;6.30;5.70;;;-1.10;99.90;;;;;;6229451;23;20409;-79
2024/01/08 09:32:13;;;;;;;6.07;5.47;;;-1.10;99.90;;;;;;6226747;23;20487;-79
2024/01/08 09:34:43;;;;;;;7.03;6.40;;;-1.00;99.90;;;;;;6222918;23;20402;-79
2024/01/08 09:37:16;;;;;;;6.40;5.87;;;-1.10;99.90;;;;;;6221105;23;20414;-78
2024/01/08 09:40:00;;;;;;;6.43;5.93;;;-1.00;99.90;;;;;;6221270;23;20918;-79
2024/01/08 09:42:39;;;;;;;6.40;5.80;;;-1.00;99.90;;;;;;6221799;23;20430;-77
2024/01/08 09:45:29;;;;;;;5.73;5.23;;;-1.00;99.90;;;;;;6224213;23;20410;-80
2024/01/08 09:48:01;;;;;;;6.30;5.70;;;-1.40;99.90;;;;;;6221915;23;20406;-79
2024/01/08 09:50:41;;;;;;;7.13;6.40;;;-1.00;99.90;;;;;;6223010;23;20430;-78
2024/01/08 09:53:18;;;;;;;7.03;6.33;;;-1.30;99.90;;;;;;6224170;23;20539;-78
2024/01/08 09:55:54;;;;;;;6.57;5.97;;;-1.00;99.90;;;;;;6220850;23;20415;-78
2024/01/08 09:58:27;;;;;;;5.97;5.47;;;-1.40;99.90;;;;;;6225297;23;20481;-79
2024/01/08 10:00:55;;;;;;;6.50;5.83;;;-1.20;99.90;;;;;;6231644;23;20436;-79
2024/01/08 10:03:35;;;;;;;6.67;6.07;;;-0.80;99.90;;;;;;6230422;23;20420;-80
2024/01/08 10:06:10;;;;;;;7.93;6.33;;;-0.90;99.90;;;;;;6225377;23;20495;-78
2024/01/08 10:08:50;;;;;;;6.70;6.00;;;-1.10;99.90;;;;;;6227700;23;20406;-79
2024/01/08 10:11:25;;;;;;;6.47;5.87;;;-1.00;99.90;;;;;;6226637;23;20449;-79
2024/01/08 10:14:09;;;;;;;6.37;5.87;;;-1.10;99.90;;;;;;6225015;23;20409;-79
2024/01/08 10:16:51;;;;;;;7.20;6.50;;;-1.00;99.90;;;;;;6225951;23;20409;-78
2024/01/08 10:19:28;;;;;;;6.73;6.10;;;-0.80;99.90;;;;;;6222332;23;20416;-78
2024/01/08 10:22:16;;;;;;;6.00;5.50;;;-0.90;99.90;;;;;;6221007;23;20461;-78
2024/01/08 10:24:58;;;;;;;6.93;6.33;;;-1.00;99.90;;;;;;6221661;23;20414;-78
2024/01/08 10:27:38;;;;;;;6.90;6.40;;;-1.00;99.90;;;;;;6221737;23;20410;-78
2024/01/08 10:30:18;;;;;;;7.83;7.03;;;-0.90;99.90;;;;;;6221741;23;20468;-78
2024/01/08 10:32:52;;;;;;;6.23;5.73;;;-0.90;99.90;;;;;;6229001;23;20442;-78
2024/01/08 10:35:52;;;;;;;6.80;6.20;;;-0.90;99.90;;;;;;6232859;23;20417;-78
2024/01/08 10:38:34;;;;;;;6.70;6.00;;;-0.90;99.90;;;;;;6225669;23;20464;-79
2024/01/08 10:41:23;;;;;;;6.07;5.57;;;-0.90;99.90;;;;;;6226185;23;20933;-77
2024/01/08 10:44:01;;;;;;;6.43;5.90;;;-0.90;99.90;;;;;;6226863;23;20406;-79
2024/01/08 10:46:56;;;;;;;6.90;5.87;;;-0.80;99.90;;;;;;6224603;23;20430;-80
2024/01/08 10:49:48;;;;;;;6.70;6.10;;;-0.70;99.90;;;;;;6225858;23;20406;-80
2024/01/08 10:52:28;;;;;;;8.13;5.90;;;-0.70;99.90;;;;;;6227901;23;20438;-82
2024/01/08 10:55:05;;;;;;;9.63;5.70;;;-0.80;99.90;;;;;;6236452;23;20398;-79
2024/01/08 10:57:46;;;;;;;5.63;5.23;;;-0.80;99.90;;;;;;6239007;23;20410;-78
2024/01/08 11:00:26;;;;;;;6.00;5.60;;;-0.70;99.90;;;;;;6238122;23;20410;-78
2024/01/08 11:03:21;;;;;;;6.00;5.47;;;-0.70;99.90;;;;;;6237913;23;20468;-81
2024/01/08 11:05:57;;;;;;;6.27;5.70;;;-0.70;99.90;;;;;;6231187;23;20414;-78
2024/01/08 11:08:43;;;;;;;8.53;5.47;;;-0.70;99.90;;;;;;6234332;23;20420;-78
2024/01/08 11:11:25;;;;;;;7.20;6.10;;;-0.70;99.90;;;;;;6233230;23;20410;-80
2024/01/08 11:14:23;;;;;;;6.10;5.60;;;-0.70;99.90;;;;;;6232240;23;20438;-80
2024/01/08 11:17:21;;;;;;;6.97;6.27;;;-0.40;99.90;;;;;;6232750;23;20414;-80
2024/01/08 11:20:07;;;;;;;7.73;7.03;;;-0.60;99.90;;;;;;6233135;23;20904;-80
2024/01/08 11:22:44;;;;;;;6.50;6.00;;;-0.50;99.90;;;;;;6235786;23;20441;-79
2024/01/08 11:25:37;;;;;;;6.37;5.13;;;-0.50;99.90;;;;;;6234760;23;20433;-79
2024/01/08 11:28:25;;;;;;;;;;;;;;;;;;;;;
2024/01/08 11:31:35;;;;;;;6.43;5.83;;;-0.70;99.90;;;;;;6233416;23;20383;-79
2024/01/08 11:34:42;;;;;;;7.23;6.63;;;-0.50;99.90;;;;;;6178334;23;20473;-78
2024/01/08 11:37:35;;;;;;;7.77;5.40;;;-0.50;99.90;;;;;;6226736;23;20407;-78
2024/01/08 11:40:14;;;;;;;6.07;5.47;;;-0.60;99.90;;;;;;6225403;23;20421;-79
2024/01/08 11:42:49;;;;;;;6.67;6.03;;;-0.60;99.90;;;;;;6227905;23;20437;-78
2024/01/08 11:45:21;;;;;;;6.33;5.77;;;-0.60;99.90;;;;;;6228624;23;20412;-78
2024/01/08 11:47:50;;;;;;;6.37;5.73;;;-0.60;99.90;;;;;;6229103;23;20406;-80
2024/01/08 11:50:25;;;;;;;5.87;5.40;;;-0.40;99.90;;;;;;6227358;23;20410;-79
2024/01/08 11:52:59;;;;;;;6.10;5.67;;;-0.90;99.90;;;;;;6228036;23;20434;-80
2024/01/08 11:55:34;;;;;;;6.13;5.63;;;-0.20;99.90;;;;;;6227721;23;20402;-79
2024/01/08 11:58:07;;;;;;;6.67;6.13;;;-0.20;99.90;;;;;;6227678;23;20398;-80
2024/01/08 12:00:37;;;;;;;5.83;5.23;;;-0.40;99.90;;;;;;6226369;23;20417;-78
2024/01/08 12:03:09;;;;;;;5.60;5.10;;;-0.40;99.90;;;;;;6224167;23;20514;-80
2024/01/08 12:05:45;;;;;;;6.13;5.63;;;-0.30;99.90;;;;;;6226987;23;20410;-79
2024/01/08 12:08:34;;;;;;;6.60;6.00;;;-0.30;99.90;;;;;;6196872;23;20445;-79
2024/01/08 12:13:52;;;;;;;6.60;6.10;;;-0.30;99.90;;;;;;6188389;23;20439;-80
2024/01/08 12:16:27;;;;;;;6.03;5.50;;;-0.40;99.90;;;;;;6190541;23;20433;-77
2024/01/08 12:18:58;;;;;;;6.37;5.80;;;-0.60;99.90;;;;;;6192245;23;20738;-78
2024/01/08 12:21:28;;;;;;;6.13;5.70;;;-0.30;99.90;;;;;;6191814;23;20483;-79
2024/01/08 12:24:04;;;;;;;6.07;5.57;;;-0.60;99.90;;;;;;6191350;23;20443;-77
2024/01/08 12:26:48;;;;;;;5.90;5.30;;;0.10;99.90;;;;;;6198065;23;20403;-79
2024/01/08 12:29:22;;;;;;;6.70;6.10;;;0.00;99.90;;;;;;6199468;23;20392;-79
2024/01/08 12:32:14;;;;;;;5.80;5.40;;;-0.10;99.90;;;;;;6200066;23;20403;-78
2024/01/08 12:34:48;;;;;;;5.77;5.30;;;-0.10;99.90;;;;;;6200535;23;20442;-81
2024/01/08 12:37:19;;;;;;;5.73;5.23;;;0.20;99.90;;;;;;6201574;23;20415;-83
2024/01/08 12:39:58;;;;;;;5.80;5.30;;;-0.40;99.90;;;;;;6200304;23;20398;-79
2024/01/08 12:42:28;;;;;;;5.90;5.40;;;-0.10;99.90;;;;;;6198072;23;20407;-79
2024/01/08 12:44:56;;;;;;;5.83;5.40;;;0.20;99.90;;;;;;6198688;23;20403;-81
2024/01/08 12:47:28;;;;;;;6.27;5.67;;;0.00;99.90;;;;;;6197772;23;20434;-78
2024/01/08 12:49:56;;;;;;;7.07;6.53;;;0.00;99.90;;;;;;6198774;23;20478;-79
2024/01/08 12:52:24;;;;;;;6.27;5.67;;;0.00;99.90;;;;;;6203455;23;20434;-80
2024/01/08 12:54:56;;;;;;;6.40;5.73;;;0.00;99.90;;;;;;6199559;23;20407;-79
2024/01/08 12:57:28;;;;;;;6.60;6.10;;;0.10;99.90;;;;;;6192052;23;20411;-77
2024/01/08 12:59:57;;;;;;;6.17;5.70;;;0.40;99.90;;;;;;6189228;23;20418;-79
2024/01/08 13:02:32;;;;;;;6.10;5.60;;;0.20;99.90;;;;;;6192327;23;20446;-80
2024/01/08 13:05:47;;;;;;;6.27;5.70;;;0.30;99.90;;;;;;6197542;23;20422;-80
2024/01/08 13:08:33;;;;;;;6.20;5.60;;;0.30;99.90;;;;;;6191454;23;20395;-82
2024/01/08 13:11:14;;;;;;;7.00;6.40;;;0.20;99.90;;;;;;6191088;23;20411;-80
2024/01/08 13:17:20;;;;;;;7.40;6.63;;;0.20;99.90;;;;;;6173598;23;20410;-78
2024/01/08 13:20:18;;;;;;;7.20;6.00;;;0.20;99.90;;;;;;6190304;23;20461;-80
2024/01/08 13:22:58;;;;;;;6.40;5.73;;;0.10;99.90;;;;;;6191278;23;20427;-79
2024/01/08 13:28:35;;;;;;;6.63;5.80;;;0.00;99.90;;;;;;6175274;23;20422;-79
2024/01/08 13:31:08;;;;;;;7.50;6.10;;;0.10;99.90;;;;;;6192055;23;20411;-79
2024/01/08 13:33:50;;;;;;;6.53;5.93;;;0.10;99.90;;;;;;6191568;23;20435;-80
2024/01/08 13:36:45;;;;;;;;;;;;;;;;;;;;;
2024/01/08 13:39:31;;;;;;;9.73;6.90;;;-0.10;99.90;;;;;;6191278;23;20396;-81
2024/01/08 13:42:35;;;;;;;7.83;7.03;;;0.00;99.90;;;;;;6191266;23;20427;-77
2024/01/08 13:45:57;;;;;;;7.70;7.10;;;0.10;99.90;;;;;;6070931;23;20432;-80
2024/01/08 13:48:30;;;;;;;7.63;7.00;;;0.00;99.90;;;;;;6007189;23;20414;-79
2024/01/08 13:51:04;;;;;;;6.87;6.27;;;0.00;99.90;;;;;;6191838;23;20410;-79
2024/01/08 13:57:54;;;;;;;7.27;6.23;;;0.00;99.90;;;;;;6045437;23;20415;-81
2024/01/08 14:00:51;;;;;;;8.97;7.40;;;-0.60;99.90;;;;;;6025444;23;20439;-80
2024/01/08 14:03:21;;;;;;;8.13;7.40;;;-0.50;99.90;;;;;;6098870;23;20420;-79
2024/01/08 14:05:55;;;;;;;7.80;7.00;;;-0.10;99.90;;;;;;6184458;23;20411;-80
2024/01/08 14:08:24;;;;;;;7.50;6.80;;;-0.20;99.90;;;;;;6189356;23;20411;-78
2024/01/08 14:10:51;;;;;;;7.30;6.60;;;-0.20;99.90;;;;;;6189034;23;20898;-77